South Pass, Louisiana
Current Conditions -  °F | °C
As of 2:51 PM on Thursday 27 Nov 2014 (Local Time) from KBVE Reporting Station
Clear Clear  
Wind Chill: 57°   Ceiling: Unl
Heat Index: 57°   Visibility: 10mi
Dew Point: 40°   Wind: 9mph
Humidity: 53%   Direction: 10°N
Pressure: 30.37"   Gusts: NA
Location:  29.2037°N, 89.3875°W
Report Text: KBVE 272051Z AUTO 01008KT 10SM CLR 14/04 A3037 RMK AO2 SLP284 T01390044 55011
Loading
Personal Weather Stations






























Interactive Weather Map New forecast layout! Learn more

10-Day Weather Forecast

Advertisements
Track Severe Weather on mobile